createdAt,value
2019-03-06T00:01:21.212Z,5.44
2019-03-06T00:03:52.583Z,5.43
2019-03-06T00:06:25.207Z,5.42
2019-03-06T00:08:56.581Z,5.35
2019-03-06T00:11:27.971Z,5.32
2019-03-06T00:13:59.283Z,5.32
2019-03-06T00:16:30.702Z,5.31
2019-03-06T00:19:02.077Z,5.29
2019-03-06T00:21:33.426Z,5.27
2019-03-06T00:24:04.651Z,5.24
2019-03-06T00:26:36.002Z,5.24
2019-03-06T00:29:07.378Z,5.22
2019-03-06T00:31:39.195Z,5.21
2019-03-06T00:34:10.514Z,5.18
2019-03-06T00:36:41.857Z,5.20
2019-03-06T00:39:13.153Z,5.19
2019-03-06T00:41:44.505Z,5.19
2019-03-06T00:44:15.812Z,5.19
2019-03-06T00:46:47.231Z,5.20
2019-03-06T00:49:18.467Z,5.20
2019-03-06T00:51:49.828Z,5.22
2019-03-06T00:54:21.237Z,5.25
2019-03-06T00:56:52.536Z,5.25
2019-03-06T00:59:23.843Z,5.28
2019-03-06T01:01:55.207Z,5.26
2019-03-06T01:04:26.454Z,5.20
2019-03-06T01:06:58.983Z,5.13
2019-03-06T01:09:30.289Z,5.12
2019-03-06T01:12:01.731Z,5.09
2019-03-06T01:14:33.041Z,5.10
2019-03-06T01:17:04.380Z,5.14
2019-03-06T01:19:43.017Z,5.11
2019-03-06T01:22:15.448Z,5.03
2019-03-06T01:24:46.765Z,4.96
2019-03-06T01:27:18.114Z,4.89
2019-03-06T01:29:49.351Z,4.82
2019-03-06T01:32:20.769Z,4.80
2019-03-06T01:35:10.672Z,4.84
2019-03-06T01:37:59.695Z,4.92
2019-03-06T01:40:32.647Z,4.92
2019-03-06T01:43:10.173Z,4.90
2019-03-06T01:45:41.456Z,4.83
2019-03-06T01:48:12.804Z,4.78
2019-03-06T01:50:44.045Z,4.72
2019-03-06T01:53:15.330Z,4.71
2019-03-06T01:55:46.634Z,4.70
2019-03-06T01:58:17.915Z,4.68
2019-03-06T02:00:49.204Z,4.64
2019-03-06T02:03:20.557Z,4.59
2019-03-06T02:05:51.934Z,4.62
2019-03-06T02:08:23.354Z,4.67
2019-03-06T02:10:54.862Z,4.71
2019-03-06T02:13:26.201Z,4.73
2019-03-06T02:15:57.504Z,4.75
2019-03-06T02:18:29.028Z,4.77
2019-03-06T02:21:00.620Z,4.77
2019-03-06T02:23:31.880Z,4.74
2019-03-06T02:26:03.403Z,4.70
2019-03-06T02:28:34.770Z,4.69
2019-03-06T02:31:06.142Z,4.65
2019-03-06T02:33:37.555Z,4.63
2019-03-06T02:36:08.800Z,4.60
2019-03-06T02:38:40.097Z,4.59
2019-03-06T02:41:11.397Z,4.54
2019-03-06T02:43:42.679Z,4.54
2019-03-06T02:46:13.915Z,4.49
2019-03-06T02:48:45.312Z,4.47
2019-03-06T02:51:16.619Z,4.46
2019-03-06T02:53:47.928Z,4.41
2019-03-06T02:56:19.286Z,4.39
2019-03-06T02:58:55.107Z,4.36
2019-03-06T03:01:27.981Z,4.33
2019-03-06T03:04:02.754Z,4.28
2019-03-06T03:06:35.766Z,4.25
2019-03-06T03:09:16.554Z,4.20
2019-03-06T03:11:47.923Z,4.18
2019-03-06T03:14:19.277Z,4.15
2019-03-06T03:16:50.566Z,4.16
2019-03-06T03:19:21.871Z,4.14
2019-03-06T03:21:54.184Z,4.10
2019-03-06T03:24:25.545Z,4.09
2019-03-06T03:26:56.795Z,4.10
2019-03-06T03:29:28.348Z,4.12
2019-03-06T03:31:59.581Z,4.10
2019-03-06T03:34:30.976Z,4.11
2019-03-06T03:37:03.249Z,4.09
2019-03-06T03:39:34.626Z,4.08
2019-03-06T03:42:05.995Z,4.06
2019-03-06T03:44:37.554Z,4.04
2019-03-06T03:47:16.600Z,4.04
2019-03-06T03:49:47.872Z,4.05
2019-03-06T03:52:19.417Z,3.91
2019-03-06T03:54:51.666Z,3.89
2019-03-06T03:57:23.192Z,3.91
2019-03-06T03:59:55.810Z,3.92
2019-03-06T04:02:27.533Z,3.91
2019-03-06T04:04:58.966Z,3.92
2019-03-06T04:07:30.402Z,3.87
2019-03-06T04:10:01.811Z,3.85
2019-03-06T04:12:34.240Z,3.83
2019-03-06T04:15:18.572Z,3.82
2019-03-06T04:17:50.778Z,3.77
2019-03-06T04:20:23.116Z,3.75
2019-03-06T04:22:54.344Z,3.72
2019-03-06T04:25:26.242Z,3.71
2019-03-06T04:27:57.645Z,3.67
2019-03-06T04:30:29.991Z,3.64
2019-03-06T04:33:01.293Z,3.60
2019-03-06T04:35:32.581Z,3.58
2019-03-06T04:38:04.187Z,3.58
2019-03-06T04:40:35.732Z,3.57
2019-03-06T04:43:07.083Z,3.53
2019-03-06T04:45:38.533Z,3.52
2019-03-06T04:48:09.830Z,3.43
2019-03-06T04:50:41.397Z,3.41
2019-03-06T04:53:12.810Z,3.37
2019-03-06T04:55:45.282Z,3.32
2019-03-06T04:58:16.564Z,3.30
2019-03-06T05:00:47.955Z,3.31
2019-03-06T05:03:19.301Z,3.25
2019-03-06T05:05:52.187Z,3.26
2019-03-06T05:08:23.450Z,3.25
2019-03-06T05:10:54.857Z,3.26
2019-03-06T05:13:26.134Z,3.24
2019-03-06T05:15:57.496Z,3.21
2019-03-06T05:18:36.372Z,3.21
2019-03-06T05:21:08.778Z,3.18
2019-03-06T05:23:40.050Z,3.13
2019-03-06T05:26:11.374Z,3.12
2019-03-06T05:28:42.800Z,3.07
2019-03-06T05:31:15.283Z,3.06
2019-03-06T05:33:46.540Z,3.08
2019-03-06T05:36:40.937Z,3.09
2019-03-06T05:39:12.892Z,3.03
2019-03-06T05:41:44.837Z,3.00
2019-03-06T05:44:16.240Z,2.97
2019-03-06T05:46:49.225Z,2.97
2019-03-06T05:49:20.526Z,2.95
2019-03-06T05:51:51.843Z,2.94
2019-03-06T05:54:23.101Z,2.91
2019-03-06T05:56:54.431Z,2.94
2019-03-06T05:59:25.777Z,2.89
2019-03-06T06:01:57.198Z,2.87
2019-03-06T06:04:34.452Z,2.86
2019-03-06T06:07:05.866Z,2.89
2019-03-06T06:09:37.312Z,2.91
2019-03-06T06:12:08.653Z,2.88
2019-03-06T06:14:40.107Z,2.87
2019-03-06T06:17:11.509Z,2.81
2019-03-06T06:19:43.084Z,2.82
2019-03-06T06:22:31.097Z,2.79
2019-03-06T06:25:02.515Z,2.76
2019-03-06T06:27:34.241Z,2.75
2019-03-06T06:30:11.211Z,2.77
2019-03-06T06:32:42.682Z,2.77
2019-03-06T06:35:15.172Z,2.79
2019-03-06T06:37:46.562Z,2.81
2019-03-06T06:40:17.872Z,2.86
2019-03-06T06:42:49.250Z,2.96
2019-03-06T06:45:21.934Z,3.05
2019-03-06T06:48:15.817Z,3.13
2019-03-06T06:51:18.211Z,3.19
2019-03-06T06:53:54.281Z,3.22
2019-03-06T06:57:02.582Z,3.25
2019-03-06T06:59:41.442Z,3.27
2019-03-06T07:02:52.031Z,3.35
2019-03-06T07:05:25.093Z,3.38
2019-03-06T07:08:14.369Z,3.43
2019-03-06T07:10:50.117Z,3.48
2019-03-06T07:13:38.263Z,3.55
2019-03-06T07:16:20.017Z,3.62
2019-03-06T07:19:09.099Z,3.70
2019-03-06T07:22:32.678Z,3.80
2019-03-06T07:24:38.617Z,3.90
2019-03-06T07:27:15.064Z,4.00
2019-03-06T07:29:57.881Z,4.11
2019-03-06T07:32:47.241Z,4.22
2019-03-06T07:35:53.359Z,4.34
2019-03-06T07:38:24.962Z,4.44
2019-03-06T07:41:00.445Z,4.53
2019-03-06T07:43:53.263Z,4.63
2019-03-06T07:46:43.494Z,4.70
2019-03-06T07:49:22.497Z,4.78
2019-03-06T07:52:15.108Z,4.85
2019-03-06T07:54:48.035Z,4.94
2019-03-06T07:57:19.179Z,5.01
2019-03-06T07:59:50.514Z,5.06
2019-03-06T08:02:54.029Z,5.13
2019-03-06T08:05:28.223Z,5.18
2019-03-06T08:07:59.696Z,5.26
2019-03-06T08:10:32.832Z,5.33
2019-03-06T08:13:08.627Z,5.39
2019-03-06T08:15:41.772Z,5.50
2019-03-06T08:18:17.796Z,5.64
2019-03-06T08:20:50.938Z,5.75
2019-03-06T08:23:30.131Z,5.77
2019-03-06T08:26:01.455Z,5.84
2019-03-06T08:28:33.073Z,5.91
2019-03-06T08:31:12.633Z,5.99
2019-03-06T08:33:44.071Z,6.10
2019-03-06T08:36:15.470Z,6.23
2019-03-06T08:38:46.720Z,6.31
2019-03-06T08:41:19.639Z,6.32
2019-03-06T08:43:51.023Z,6.40
2019-03-06T08:46:30.003Z,6.48
2019-03-06T08:49:12.043Z,6.54
2019-03-06T08:51:53.165Z,6.63
2019-03-06T08:54:36.861Z,6.72
2019-03-06T08:57:17.461Z,6.77
2019-03-06T08:59:59.109Z,6.79
2019-03-06T09:02:37.961Z,6.80
2019-03-06T09:05:17.587Z,6.78
2019-03-06T09:07:56.641Z,6.86
2019-03-06T09:10:32.796Z,6.92
2019-03-06T09:13:11.327Z,7.08
2019-03-06T09:15:44.306Z,7.26
2019-03-06T09:18:29.271Z,7.46
2019-03-06T09:21:02.238Z,7.58
2019-03-06T09:23:39.019Z,7.68
2019-03-06T09:26:14.896Z,7.76
2019-03-06T09:28:48.067Z,7.88
2019-03-06T09:31:22.064Z,8.04
2019-03-06T09:33:56.350Z,8.19
2019-03-06T09:36:35.091Z,8.25
2019-03-06T09:39:08.024Z,8.25
2019-03-06T09:41:41.133Z,8.30
2019-03-06T09:44:23.156Z,8.32
2019-03-06T09:46:59.250Z,8.37
2019-03-06T09:49:47.769Z,8.39
2019-03-06T09:52:20.994Z,8.38
2019-03-06T09:54:55.099Z,8.40
2019-03-06T09:57:30.889Z,8.44
2019-03-06T10:00:03.913Z,8.52
2019-03-06T10:02:44.322Z,8.73
2019-03-06T10:05:17.540Z,8.84
2019-03-06T10:07:50.750Z,9.01
2019-03-06T10:10:29.620Z,9.22
2019-03-06T10:13:20.739Z,9.48
2019-03-06T10:15:56.458Z,9.71
2019-03-06T10:18:41.478Z,9.87
2019-03-06T10:21:13.120Z,10.05
2019-03-06T10:23:45.479Z,10.20
2019-03-06T10:26:17.271Z,10.27
2019-03-06T10:28:48.773Z,10.55
2019-03-06T10:31:21.003Z,10.79
2019-03-06T10:33:52.348Z,11.11
2019-03-06T10:36:23.719Z,11.13
2019-03-06T10:38:55.132Z,11.47
2019-03-06T10:41:28.218Z,11.76
2019-03-06T10:44:02.797Z,11.89
2019-03-06T10:46:34.466Z,11.73
2019-03-06T10:49:06.438Z,11.58
2019-03-06T10:51:37.924Z,11.55
2019-03-06T10:54:09.494Z,11.41
2019-03-06T10:56:41.200Z,11.37
2019-03-06T10:59:12.592Z,11.58
2019-03-06T11:01:45.188Z,11.83
2019-03-06T11:04:18.326Z,12.03
2019-03-06T11:06:58.832Z,12.08
2019-03-06T11:09:30.647Z,12.26
2019-03-06T11:12:02.505Z,12.01
2019-03-06T11:14:35.703Z,11.96
2019-03-06T11:17:07.504Z,12.12
2019-03-06T11:19:39.084Z,12.24
2019-03-06T11:22:10.677Z,12.38
2019-03-06T11:24:42.537Z,12.54
2019-03-06T11:27:13.968Z,12.58
2019-03-06T11:29:45.584Z,12.59
2019-03-06T11:32:17.531Z,12.62
2019-03-06T11:34:49.334Z,12.67
2019-03-06T11:37:20.884Z,12.62
2019-03-06T11:39:52.328Z,12.68
2019-03-06T11:42:23.739Z,12.81
2019-03-06T11:44:56.724Z,13.08
2019-03-06T11:47:29.166Z,13.23
2019-03-06T11:50:00.723Z,13.29
2019-03-06T11:52:34.788Z,13.11
2019-03-06T11:55:12.941Z,13.04
2019-03-06T11:57:45.598Z,13.02
2019-03-06T12:00:37.869Z,13.05
2019-03-06T12:03:09.493Z,13.16
2019-03-06T12:05:41.382Z,13.07
2019-03-06T12:08:17.116Z,13.22
2019-03-06T12:10:49.066Z,13.58
2019-03-06T12:13:20.591Z,13.62
2019-03-06T12:15:52.857Z,13.54
2019-03-06T12:18:25.479Z,13.61
2019-03-06T12:20:57.051Z,13.64
2019-03-06T12:23:28.748Z,13.84
2019-03-06T12:26:01.718Z,13.93
2019-03-06T12:28:33.198Z,13.99
2019-03-06T12:31:08.290Z,14.09
2019-03-06T12:33:39.818Z,14.26
2019-03-06T12:36:12.263Z,14.33
2019-03-06T12:38:43.669Z,14.34
2019-03-06T12:41:16.524Z,14.36
2019-03-06T12:43:47.872Z,14.45
2019-03-06T12:46:23.776Z,14.43
2019-03-06T12:48:59.642Z,14.54
2019-03-06T12:51:31.508Z,14.99
2019-03-06T12:54:03.008Z,15.51
2019-03-06T12:56:34.456Z,15.61
2019-03-06T12:59:06.814Z,15.70
2019-03-06T13:01:39.192Z,15.31
2019-03-06T13:04:10.802Z,15.21
2019-03-06T13:06:44.291Z,15.07
2019-03-06T13:09:20.162Z,15.09
2019-03-06T13:11:51.717Z,15.22
2019-03-06T13:14:23.109Z,15.10
2019-03-06T13:16:54.528Z,14.87
2019-03-06T13:19:27.389Z,14.63
2019-03-06T13:21:58.846Z,14.74
2019-03-06T13:24:31.864Z,14.97
2019-03-06T13:27:05.326Z,14.96
2019-03-06T13:29:36.900Z,15.06
2019-03-06T13:32:11.771Z,15.04
2019-03-06T13:34:50.135Z,14.95
2019-03-06T13:37:14.334Z,14.92
2019-03-06T13:39:47.331Z,14.87
2019-03-06T13:42:18.850Z,14.85
2019-03-06T13:44:50.176Z,14.91
2019-03-06T13:47:21.547Z,15.07
2019-03-06T13:49:52.967Z,15.06
2019-03-06T13:52:24.480Z,15.00
2019-03-06T13:54:55.881Z,14.88
2019-03-06T13:57:27.407Z,14.81
2019-03-06T13:59:58.821Z,14.70
2019-03-06T14:02:30.140Z,14.49
2019-03-06T14:05:02.752Z,14.49
2019-03-06T14:07:35.715Z,14.67
2019-03-06T14:10:12.296Z,14.95
2019-03-06T14:12:47.558Z,15.09
2019-03-06T14:15:20.311Z,15.20
2019-03-06T14:17:54.985Z,15.08
2019-03-06T14:20:26.328Z,14.96
2019-03-06T14:22:57.817Z,14.88
2019-03-06T14:25:29.621Z,15.05
2019-03-06T14:28:01.052Z,15.04
2019-03-06T14:30:38.785Z,15.01
2019-03-06T14:33:10.279Z,14.95
2019-03-06T14:35:41.586Z,14.86
2019-03-06T14:38:13.099Z,14.81
2019-03-06T14:40:45.521Z,14.76
2019-03-06T14:43:17.074Z,14.69
2019-03-06T14:46:00.027Z,14.75
2019-03-06T14:48:31.511Z,14.61
2019-03-06T14:51:03.810Z,14.59
2019-03-06T14:53:35.257Z,14.58
2019-03-06T14:56:09.441Z,14.53
2019-03-06T14:58:40.735Z,14.51
2019-03-06T15:01:12.131Z,14.44
2019-03-06T15:03:43.579Z,14.40
2019-03-06T15:06:15.015Z,14.38
2019-03-06T15:08:46.387Z,14.35
2019-03-06T15:11:18.292Z,14.33
2019-03-06T15:13:51.608Z,14.25
2019-03-06T15:16:22.915Z,14.16
2019-03-06T15:18:54.319Z,14.05
2019-03-06T15:21:25.656Z,13.96
2019-03-06T15:23:57.294Z,13.92
2019-03-06T15:26:28.669Z,13.87
2019-03-06T15:29:00.031Z,13.85
2019-03-06T15:31:31.340Z,13.83
2019-03-06T15:34:13.079Z,13.81
2019-03-06T15:36:44.319Z,13.77
2019-03-06T15:39:31.055Z,13.73
2019-03-06T15:42:03.459Z,13.72
2019-03-06T15:44:35.223Z,13.69
2019-03-06T15:47:06.783Z,13.69
2019-03-06T15:49:38.292Z,13.68
2019-03-06T15:52:14.431Z,13.67
2019-03-06T15:54:45.661Z,13.67
2019-03-06T15:57:17.016Z,13.65
2019-03-06T15:59:48.344Z,13.64
2019-03-06T16:02:24.423Z,13.63
2019-03-06T16:04:55.872Z,13.62
2019-03-06T16:07:28.401Z,13.63
2019-03-06T16:10:00.060Z,13.64
2019-03-06T16:12:31.560Z,13.64
2019-03-06T16:15:05.366Z,13.63
2019-03-06T16:17:43.290Z,13.64
2019-03-06T16:20:18.928Z,13.64
2019-03-06T16:22:50.941Z,13.61
2019-03-06T16:25:25.142Z,13.57
2019-03-06T16:27:57.120Z,13.52
2019-03-06T16:30:30.604Z,13.49
2019-03-06T16:33:02.113Z,13.44
2019-03-06T16:35:34.558Z,13.37
2019-03-06T16:38:06.152Z,13.34
2019-03-06T16:40:37.530Z,13.22
2019-03-06T16:43:09.921Z,13.16
2019-03-06T16:45:41.341Z,13.09
2019-03-06T16:48:12.799Z,13.03
2019-03-06T16:50:44.147Z,12.97
2019-03-06T16:53:16.101Z,12.95
2019-03-06T16:55:52.264Z,12.89
2019-03-06T16:58:23.577Z,12.85
2019-03-06T17:00:56.492Z,12.81
2019-03-06T17:03:27.806Z,12.76
2019-03-06T17:06:05.029Z,12.74
2019-03-06T17:08:36.550Z,12.68
2019-03-06T17:11:10.732Z,12.64
2019-03-06T17:13:42.387Z,12.59
2019-03-06T17:16:13.877Z,12.54
2019-03-06T17:18:46.844Z,12.52
2019-03-06T17:21:18.175Z,12.49
2019-03-06T17:23:50.663Z,12.48
2019-03-06T17:26:30.743Z,12.47
2019-03-06T17:29:11.803Z,12.42
2019-03-06T17:31:44.453Z,12.35
2019-03-06T17:34:16.141Z,12.31
2019-03-06T17:36:47.494Z,12.28
2019-03-06T17:39:20.733Z,12.27
2019-03-06T17:41:51.967Z,12.31
2019-03-06T17:44:23.390Z,12.32
2019-03-06T17:46:55.086Z,12.30
2019-03-06T17:49:26.494Z,12.28
2019-03-06T17:51:57.944Z,12.28
2019-03-06T17:54:33.575Z,12.24
2019-03-06T17:57:05.317Z,12.19
2019-03-06T17:59:36.910Z,12.12
2019-03-06T18:02:10.029Z,12.07
2019-03-06T18:04:41.460Z,12.03
2019-03-06T18:07:12.853Z,12.03
2019-03-06T18:09:48.132Z,12.00
2019-03-06T18:12:19.675Z,11.99
2019-03-06T18:14:52.708Z,11.94
2019-03-06T18:17:24.427Z,11.91
2019-03-06T18:19:56.167Z,11.90
2019-03-06T18:22:28.237Z,11.89
2019-03-06T18:25:00.394Z,11.84
2019-03-06T18:27:31.993Z,11.83
2019-03-06T18:30:05.102Z,11.84
2019-03-06T18:32:40.566Z,11.81
2019-03-06T18:35:21.738Z,11.73
2019-03-06T18:37:57.351Z,11.72
2019-03-06T18:40:29.648Z,11.65
2019-03-06T18:43:01.826Z,11.62
2019-03-06T18:45:33.440Z,11.58
2019-03-06T18:48:05.560Z,11.54
2019-03-06T18:50:41.532Z,11.55
2019-03-06T18:53:13.070Z,11.51
2019-03-06T18:55:44.779Z,11.47
2019-03-06T18:58:17.339Z,11.45
2019-03-06T19:00:50.451Z,11.43
2019-03-06T19:03:21.863Z,11.42
2019-03-06T19:05:53.275Z,11.38
2019-03-06T19:08:31.099Z,11.34
2019-03-06T19:10:58.149Z,11.30
2019-03-06T19:13:29.671Z,11.34
2019-03-06T19:16:01.224Z,11.34
2019-03-06T19:18:32.793Z,11.30
2019-03-06T19:21:04.203Z,11.19
2019-03-06T19:23:41.507Z,11.15
2019-03-06T19:26:12.946Z,11.12
2019-03-06T19:28:46.042Z,11.11
2019-03-06T19:31:17.792Z,11.07
2019-03-06T19:33:49.381Z,11.06
2019-03-06T19:36:20.847Z,11.05
2019-03-06T19:38:55.344Z,11.04
2019-03-06T19:41:26.702Z,11.02
2019-03-06T19:43:58.222Z,10.99
2019-03-06T19:46:29.826Z,11.02
2019-03-06T19:49:01.116Z,11.03
2019-03-06T19:51:32.448Z,10.99
2019-03-06T19:54:05.016Z,10.94
2019-03-06T19:56:36.594Z,10.88
2019-03-06T19:59:08.997Z,10.85
2019-03-06T20:01:52.436Z,10.85
2019-03-06T20:04:24.035Z,10.85
2019-03-06T20:06:55.505Z,10.79
2019-03-06T20:09:28.255Z,10.76
2019-03-06T20:11:59.739Z,10.72
2019-03-06T20:14:31.471Z,10.75
2019-03-06T20:17:03.107Z,10.76
2019-03-06T20:19:34.861Z,10.74
2019-03-06T20:22:06.364Z,10.72
2019-03-06T20:24:38.051Z,10.64
2019-03-06T20:27:09.755Z,10.67
2019-03-06T20:29:41.211Z,10.71
2019-03-06T20:32:12.884Z,10.73
2019-03-06T20:34:44.286Z,10.76
2019-03-06T20:37:15.652Z,10.76
2019-03-06T20:39:47.539Z,10.74
2019-03-06T20:42:18.981Z,10.73
2019-03-06T20:44:51.955Z,10.70
2019-03-06T20:47:30.152Z,10.63
2019-03-06T20:50:01.487Z,10.51
2019-03-06T20:52:33.074Z,10.44
2019-03-06T20:55:06.197Z,10.39
2019-03-06T20:57:37.803Z,10.40
2019-03-06T21:00:16.025Z,10.41
2019-03-06T21:02:47.771Z,10.42
2019-03-06T21:05:19.423Z,10.43
2019-03-06T21:07:50.852Z,10.37
2019-03-06T21:10:23.361Z,10.31
2019-03-06T21:12:55.022Z,10.33
2019-03-06T21:15:26.492Z,10.32
2019-03-06T21:17:57.896Z,10.31
2019-03-06T21:20:29.236Z,10.29
2019-03-06T21:23:00.788Z,10.31
2019-03-06T21:25:32.366Z,10.23
2019-03-06T21:28:03.681Z,10.17
2019-03-06T21:30:36.597Z,10.15
2019-03-06T21:33:08.332Z,10.12
2019-03-06T21:35:39.765Z,10.13
2019-03-06T21:38:11.187Z,10.12
2019-03-06T21:40:42.580Z,10.11
2019-03-06T21:43:14.123Z,10.04
2019-03-06T21:45:45.443Z,10.04
2019-03-06T21:48:16.760Z,10.06
2019-03-06T21:50:48.173Z,10.07
2019-03-06T21:53:19.542Z,10.06
2019-03-06T21:55:52.059Z,10.05
2019-03-06T21:58:23.571Z,10.04
2019-03-06T22:00:54.974Z,10.02
2019-03-06T22:03:30.090Z,9.99
2019-03-06T22:06:01.364Z,10.00
2019-03-06T22:08:32.977Z,9.97
2019-03-06T22:11:04.283Z,9.93
2019-03-06T22:13:35.594Z,9.92
2019-03-06T22:16:06.929Z,9.90
2019-03-06T22:18:39.821Z,9.94
2019-03-06T22:21:11.137Z,9.96
2019-03-06T22:23:42.504Z,9.96
2019-03-06T22:26:13.762Z,10.00
2019-03-06T22:28:45.418Z,9.97
2019-03-06T22:31:16.670Z,9.94
2019-03-06T22:33:48.258Z,9.90
2019-03-06T22:36:19.582Z,9.85
2019-03-06T22:38:51.476Z,9.74
2019-03-06T22:41:23.690Z,9.69
2019-03-06T22:43:55.196Z,9.60
2019-03-06T22:46:26.503Z,9.56
2019-03-06T22:48:57.997Z,9.55
2019-03-06T22:51:29.315Z,9.55
2019-03-06T22:54:00.893Z,9.53
2019-03-06T22:56:32.348Z,9.53
2019-03-06T22:59:03.755Z,9.54
2019-03-06T23:01:36.576Z,9.55
2019-03-06T23:04:08.345Z,9.55
2019-03-06T23:06:39.727Z,9.56
2019-03-06T23:09:11.637Z,9.57
2019-03-06T23:11:43.714Z,9.56
2019-03-06T23:14:15.150Z,9.56
2019-03-06T23:16:46.411Z,9.59
2019-03-06T23:19:17.764Z,9.55
2019-03-06T23:21:49.008Z,9.56
2019-03-06T23:24:20.359Z,9.55
2019-03-06T23:26:51.690Z,9.57
2019-03-06T23:29:23.223Z,9.60
2019-03-06T23:31:54.457Z,9.49
2019-03-06T23:34:26.013Z,9.47
2019-03-06T23:36:57.288Z,9.47
2019-03-06T23:39:28.817Z,9.43
2019-03-06T23:42:00.357Z,9.37
2019-03-06T23:44:31.729Z,9.35
2019-03-06T23:47:03.009Z,9.35
2019-03-06T23:49:36.885Z,9.34
2019-03-06T23:52:09.180Z,9.32
2019-03-06T23:54:40.731Z,9.29
2019-03-06T23:57:12.036Z,9.28
2019-03-06T23:59:43.428Z,9.33
